createdAt,value
2023-04-11T00:00:06.769Z,16.95
2023-04-11T00:02:13.156Z,16.94
2023-04-11T00:04:15.204Z,16.92
2023-04-11T00:06:16.706Z,16.91
2023-04-11T00:08:18.105Z,16.90
2023-04-11T00:10:19.796Z,16.90
2023-04-11T00:12:21.315Z,16.89
2023-04-11T00:14:23.496Z,16.90
2023-04-11T00:16:26.811Z,16.90
2023-04-11T00:18:28.392Z,16.88
2023-04-11T00:20:30.610Z,16.87
2023-04-11T00:22:34.168Z,16.88
2023-04-11T00:24:35.945Z,16.89
2023-04-11T00:26:37.667Z,16.88
2023-04-11T00:28:39.185Z,16.89
2023-04-11T00:30:40.827Z,16.89
2023-04-11T00:32:42.681Z,16.89
2023-04-11T00:34:47.253Z,16.89
2023-04-11T00:36:48.954Z,16.89
2023-04-11T00:38:50.640Z,16.89
2023-04-11T00:40:52.284Z,16.86
2023-04-11T00:42:56.098Z,16.88
2023-04-11T00:44:57.647Z,16.88
2023-04-11T00:47:01.299Z,16.87
2023-04-11T00:49:03.259Z,16.86
2023-04-11T00:51:05.295Z,16.86
2023-04-11T00:53:08.400Z,16.85
2023-04-11T00:55:11.486Z,16.85
2023-04-11T00:57:13.296Z,16.86
2023-04-11T00:59:14.864Z,16.86
2023-04-11T01:01:16.730Z,16.85
2023-04-11T01:03:21.932Z,16.86
2023-04-11T01:05:23.809Z,16.87
2023-04-11T01:07:25.993Z,16.88
2023-04-11T01:09:28.677Z,16.91
2023-04-11T01:11:30.746Z,16.91
2023-04-11T01:13:34.400Z,16.92
2023-04-11T01:15:36.125Z,16.93
2023-04-11T01:17:40.255Z,16.94
2023-04-11T01:19:44.338Z,16.95
2023-04-11T01:21:48.276Z,16.96
2023-04-11T01:23:52.598Z,17.00
2023-04-11T01:25:54.427Z,17.00
2023-04-11T01:27:57.179Z,17.02
2023-04-11T01:29:58.801Z,17.03
2023-04-11T01:32:00.351Z,17.05
2023-04-11T01:34:03.133Z,17.07
2023-04-11T01:36:05.151Z,17.07
2023-04-11T01:38:07.002Z,17.09
2023-04-11T01:40:09.544Z,17.10
2023-04-11T01:42:15.248Z,17.11
2023-04-11T01:44:17.471Z,17.12
2023-04-11T01:46:19.658Z,17.13
2023-04-11T01:48:21.233Z,17.14
2023-04-11T01:50:32.672Z,17.15
2023-04-11T01:52:34.190Z,17.16
2023-04-11T01:54:38.199Z,17.17
2023-04-11T01:56:41.169Z,17.18
2023-04-11T01:58:42.818Z,17.18
2023-04-11T02:00:44.604Z,17.19
2023-04-11T02:02:46.714Z,17.20
2023-04-11T02:04:48.644Z,17.21
2023-04-11T02:06:50.225Z,17.20
2023-04-11T02:08:54.944Z,17.22
2023-04-11T02:10:56.728Z,17.22
2023-04-11T02:12:58.589Z,17.22
2023-04-11T02:15:00.220Z,17.23
2023-04-11T02:17:04.868Z,17.21
2023-04-11T02:19:08.349Z,17.22
2023-04-11T02:21:10.614Z,17.21
2023-04-11T02:23:12.835Z,17.22
2023-04-11T02:25:14.678Z,17.21
2023-04-11T02:27:16.754Z,17.20
2023-04-11T02:29:20.793Z,17.20
2023-04-11T02:31:27.324Z,17.21
2023-04-11T02:33:29.320Z,17.21
2023-04-11T02:35:33.723Z,17.20
2023-04-11T02:37:37.539Z,17.19
2023-04-11T02:39:39.228Z,17.21
2023-04-11T02:41:47.066Z,17.20
2023-04-11T02:43:48.690Z,17.20
2023-04-11T02:45:52.443Z,17.21
2023-04-11T02:47:58.775Z,17.19
2023-04-11T02:50:00.819Z,17.20
2023-04-11T02:52:07.105Z,17.19
2023-04-11T02:54:08.762Z,17.20
2023-04-11T02:56:13.198Z,17.20
2023-04-11T02:58:17.683Z,17.20
2023-04-11T03:00:20.433Z,17.18
2023-04-11T03:02:29.910Z,17.18
2023-04-11T03:04:31.996Z,17.18
2023-04-11T03:06:42.047Z,17.17
2023-04-11T03:08:43.741Z,17.18
2023-04-11T03:10:45.320Z,17.18
2023-04-11T03:12:46.978Z,17.18
2023-04-11T03:14:51.160Z,17.19
2023-04-11T03:16:54.977Z,17.18
2023-04-11T03:18:59.590Z,17.18
2023-04-11T03:21:01.320Z,17.18
2023-04-11T03:23:03.512Z,17.19
2023-04-11T03:25:09.305Z,17.18
2023-04-11T03:27:11.065Z,17.18
2023-04-11T03:29:16.522Z,17.20
2023-04-11T03:31:32.136Z,17.18
2023-04-11T03:33:33.758Z,17.19
2023-04-11T03:35:36.373Z,17.18
2023-04-11T03:37:37.902Z,17.17
2023-04-11T03:39:39.804Z,17.16
2023-04-11T03:41:41.762Z,17.15
2023-04-11T03:43:45.540Z,17.15
2023-04-11T03:45:47.245Z,17.15
2023-04-11T03:47:57.618Z,17.14
2023-04-11T03:50:07.043Z,17.14
2023-04-11T03:52:15.153Z,17.14
2023-04-11T03:54:19.097Z,17.11
2023-04-11T03:56:29.824Z,17.08
2023-04-11T03:58:34.634Z,17.07
2023-04-11T04:00:36.442Z,17.05
2023-04-11T04:02:43.180Z,17.04
2023-04-11T04:04:58.623Z,17.04
2023-04-11T04:07:09.985Z,17.02
2023-04-11T04:09:15.556Z,17.00
2023-04-11T04:11:22.718Z,16.98
2023-04-11T04:13:24.908Z,16.98
2023-04-11T04:15:47.441Z,16.95
2023-04-11T04:17:51.448Z,16.94
2023-04-11T04:20:01.218Z,16.92
2023-04-11T04:22:03.879Z,16.91
2023-04-11T04:24:12.286Z,16.88
2023-04-11T04:26:35.061Z,16.86
2023-04-11T04:28:47.936Z,16.84
2023-04-11T04:30:58.239Z,16.83
2023-04-11T04:33:05.096Z,16.84
2023-04-11T04:35:08.900Z,16.86
2023-04-11T04:37:22.056Z,16.85
2023-04-11T04:39:30.152Z,16.86
2023-04-11T04:41:37.321Z,16.86
2023-04-11T04:43:42.056Z,16.87
2023-04-11T04:45:49.010Z,16.88
2023-04-11T04:47:55.904Z,16.87
2023-04-11T04:49:57.493Z,16.89
2023-04-11T04:51:59.174Z,16.90
2023-04-11T04:54:00.865Z,16.92
2023-04-11T04:56:02.516Z,16.90
2023-04-11T04:58:06.864Z,16.86
2023-04-11T05:00:11.497Z,16.86
2023-04-11T05:02:19.040Z,16.82
2023-04-11T05:04:21.619Z,16.77
2023-04-11T05:06:31.969Z,16.73
2023-04-11T05:08:35.356Z,16.68
2023-04-11T05:10:40.772Z,16.63
2023-04-11T05:12:44.972Z,16.59
2023-04-11T05:14:47.848Z,16.57
2023-04-11T05:16:49.594Z,16.53
2023-04-11T05:18:53.836Z,16.51
2023-04-11T05:20:55.293Z,16.50
2023-04-11T05:22:59.827Z,16.49
2023-04-11T05:25:02.330Z,16.48
2023-04-11T05:27:04.001Z,16.47
2023-04-11T05:29:06.662Z,16.46
2023-04-11T05:31:08.955Z,16.46
2023-04-11T05:33:12.754Z,16.46
2023-04-11T05:35:16.824Z,16.44
2023-04-11T05:37:27.709Z,16.44
2023-04-11T05:39:29.221Z,16.44
2023-04-11T05:41:31.641Z,16.43
2023-04-11T05:43:33.599Z,16.43
2023-04-11T05:45:42.214Z,16.43
2023-04-11T05:47:43.775Z,16.42
2023-04-11T05:49:45.555Z,16.42
2023-04-11T05:51:47.053Z,16.40
2023-04-11T05:53:50.457Z,16.40
2023-04-11T05:55:52.534Z,16.41
2023-04-11T05:57:53.982Z,16.40
2023-04-11T05:59:55.434Z,16.39
2023-04-11T06:01:57.934Z,16.38
2023-04-11T06:03:59.822Z,16.38
2023-04-11T06:06:01.646Z,16.39
2023-04-11T06:08:06.715Z,16.40
2023-04-11T06:10:09.639Z,16.40
2023-04-11T06:12:14.616Z,16.41
2023-04-11T06:14:16.132Z,16.40
2023-04-11T06:16:18.061Z,16.40
2023-04-11T06:18:19.736Z,16.41
2023-04-11T06:20:23.548Z,16.40
2023-04-11T06:22:24.984Z,16.41
2023-04-11T06:24:40.523Z,16.38
2023-04-11T06:26:42.389Z,16.39
2023-04-11T06:28:43.971Z,16.40
2023-04-11T06:30:45.800Z,16.39
2023-04-11T06:32:47.304Z,16.39
2023-04-11T06:34:48.732Z,16.39
2023-04-11T06:36:50.187Z,16.40
2023-04-11T06:38:51.735Z,16.39
2023-04-11T06:40:54.560Z,16.37
2023-04-11T06:43:00.940Z,16.36
2023-04-11T06:45:02.574Z,16.37
2023-04-11T06:47:04.288Z,16.37
2023-04-11T06:49:07.222Z,16.38
2023-04-11T06:51:10.455Z,16.39
2023-04-11T06:53:13.187Z,16.37
2023-04-11T06:55:15.431Z,16.36
2023-04-11T06:57:18.113Z,16.34
2023-04-11T06:59:20.505Z,16.33
2023-04-11T07:01:25.584Z,16.34
2023-04-11T07:03:29.346Z,16.32
2023-04-11T07:05:31.130Z,16.29
2023-04-11T07:07:32.520Z,16.29
2023-04-11T07:09:34.147Z,16.28
2023-04-11T07:11:38.658Z,16.26
2023-04-11T07:13:40.230Z,16.25
2023-04-11T07:15:41.757Z,16.28
2023-04-11T07:17:43.494Z,16.28
2023-04-11T07:19:48.344Z,16.28
2023-04-11T07:21:49.823Z,16.31
2023-04-11T07:23:52.769Z,16.32
2023-04-11T07:25:54.779Z,16.33
2023-04-11T07:27:56.717Z,16.34
2023-04-11T07:29:58.613Z,16.35
2023-04-11T07:32:00.311Z,16.36
2023-04-11T07:34:04.841Z,16.38
2023-04-11T07:36:07.113Z,16.39
2023-04-11T07:38:10.215Z,16.41
2023-04-11T07:40:15.471Z,16.43
2023-04-11T07:42:17.033Z,16.45
2023-04-11T07:44:20.846Z,16.48
2023-04-11T07:46:22.321Z,16.53
2023-04-11T07:48:26.271Z,16.57
2023-04-11T07:50:27.870Z,16.60
2023-04-11T07:52:29.366Z,16.63
2023-04-11T07:54:30.918Z,16.67
2023-04-11T07:56:32.607Z,16.69
2023-04-11T07:58:34.056Z,16.70
2023-04-11T08:00:36.138Z,16.75
2023-04-11T08:02:43.906Z,16.74
2023-04-11T08:04:45.852Z,16.80
2023-04-11T08:06:47.447Z,16.87
2023-04-11T08:08:50.070Z,16.94
2023-04-11T08:10:54.259Z,17.02
2023-04-11T08:12:58.607Z,17.08
2023-04-11T08:15:00.720Z,17.18
2023-04-11T08:17:02.623Z,17.26
2023-04-11T08:19:04.302Z,17.35
2023-04-11T08:21:07.431Z,17.41
2023-04-11T08:23:10.417Z,17.48
2023-04-11T08:25:13.750Z,17.52
2023-04-11T08:27:15.504Z,17.56
2023-04-11T08:29:17.266Z,17.60
2023-04-11T08:31:19.499Z,17.62
2023-04-11T08:33:24.491Z,17.65
2023-04-11T08:35:26.283Z,17.67
2023-04-11T08:37:28.237Z,17.67
2023-04-11T08:39:29.802Z,17.69
2023-04-11T08:41:32.281Z,17.70
2023-04-11T08:43:39.989Z,17.69
2023-04-11T08:45:42.125Z,17.72
2023-04-11T08:47:45.599Z,17.78
2023-04-11T08:49:47.572Z,17.84
2023-04-11T08:51:53.855Z,17.90
2023-04-11T08:53:58.187Z,17.95
2023-04-11T08:56:00.041Z,18.03
2023-04-11T08:58:02.936Z,18.10
2023-04-11T09:00:19.153Z,18.18
2023-04-11T09:02:21.356Z,18.23
2023-04-11T09:04:39.323Z,18.26
2023-04-11T09:06:55.562Z,18.33
2023-04-11T09:09:02.020Z,18.38
2023-04-11T09:11:03.768Z,18.42
2023-04-11T09:13:27.433Z,18.49
2023-04-11T09:15:31.840Z,18.57
2023-04-11T09:17:41.405Z,18.66
2023-04-11T09:19:42.984Z,18.75
2023-04-11T09:21:50.514Z,18.81
2023-04-11T09:23:52.115Z,18.84
2023-04-11T09:25:53.613Z,18.86
2023-04-11T09:28:12.055Z,18.84
2023-04-11T09:30:24.352Z,18.82
2023-04-11T09:32:34.199Z,18.77
2023-04-11T09:34:37.836Z,18.77
2023-04-11T09:36:40.841Z,18.81
2023-04-11T09:38:44.036Z,18.88
2023-04-11T09:40:45.786Z,18.99
2023-04-11T09:42:48.665Z,19.10
2023-04-11T09:44:50.597Z,19.19
2023-04-11T09:46:59.617Z,19.29
2023-04-11T09:49:01.804Z,19.38
2023-04-11T09:51:08.121Z,19.50
2023-04-11T09:53:12.704Z,19.63
2023-04-11T09:55:20.410Z,19.73
2023-04-11T09:57:25.388Z,19.80
2023-04-11T09:59:27.660Z,19.85
2023-04-11T10:01:29.293Z,19.92
2023-04-11T10:03:34.925Z,19.99
2023-04-11T10:05:40.391Z,20.10
2023-04-11T10:07:57.012Z,20.20
2023-04-11T10:09:58.658Z,20.35
2023-04-11T10:12:00.558Z,20.48
2023-04-11T10:14:02.181Z,20.61
2023-04-11T10:16:24.150Z,20.77
2023-04-11T10:18:25.987Z,20.92
2023-04-11T10:20:40.436Z,21.01
2023-04-11T10:22:43.115Z,21.09
2023-04-11T10:25:18.472Z,21.14
2023-04-11T10:27:47.228Z,21.20
2023-04-11T10:29:51.681Z,21.42
2023-04-11T10:32:08.645Z,21.34
2023-04-11T10:34:14.518Z,21.27
2023-04-11T10:36:16.304Z,21.26
2023-04-11T10:38:36.744Z,21.23
2023-04-11T10:41:16.660Z,21.24
2023-04-11T10:43:21.691Z,21.24
2023-04-11T10:45:28.061Z,21.21
2023-04-11T10:47:29.774Z,21.22
2023-04-11T10:49:37.397Z,21.21
2023-04-11T10:51:38.997Z,21.25
2023-04-11T10:53:40.977Z,21.32
2023-04-11T10:55:50.604Z,21.39
2023-04-11T10:58:15.568Z,21.47
2023-04-11T11:00:20.231Z,21.52
2023-04-11T11:02:26.447Z,21.58
2023-04-11T11:04:36.292Z,21.60
2023-04-11T11:06:47.494Z,21.63
2023-04-11T11:08:56.525Z,21.61
2023-04-11T11:11:02.034Z,21.59
2023-04-11T11:13:04.309Z,21.60
2023-04-11T11:15:20.882Z,21.61
2023-04-11T11:17:23.767Z,21.67
2023-04-11T11:19:25.621Z,21.69
2023-04-11T11:21:28.815Z,21.71
2023-04-11T11:23:30.906Z,21.73
2023-04-11T11:25:32.844Z,21.76
2023-04-11T11:27:34.959Z,21.79
2023-04-11T11:29:37.876Z,21.87
2023-04-11T11:31:45.581Z,21.93
2023-04-11T11:33:47.340Z,22.04
2023-04-11T11:36:08.775Z,22.14
2023-04-11T11:38:10.348Z,22.28
2023-04-11T11:40:14.869Z,22.36
2023-04-11T11:42:16.821Z,22.41
2023-04-11T11:44:29.555Z,22.42
2023-04-11T11:46:33.894Z,22.42
2023-04-11T11:48:35.550Z,22.43
2023-04-11T11:50:37.058Z,22.44
2023-04-11T11:52:41.251Z,22.47
2023-04-11T11:54:44.352Z,22.51
2023-04-11T11:56:52.645Z,22.57
2023-04-11T11:58:54.341Z,22.64
2023-04-11T12:00:56.318Z,22.68
2023-04-11T12:02:59.995Z,22.74
2023-04-11T12:05:04.962Z,22.81
2023-04-11T12:07:12.261Z,22.85
2023-04-11T12:09:13.805Z,22.91
2023-04-11T12:11:16.712Z,22.96
2023-04-11T12:13:23.749Z,23.00
2023-04-11T12:15:26.062Z,23.04
2023-04-11T12:17:38.032Z,23.07
2023-04-11T12:19:42.348Z,23.16
2023-04-11T12:21:44.044Z,23.20
2023-04-11T12:23:45.799Z,23.25
2023-04-11T12:25:47.843Z,23.28
2023-04-11T12:27:49.502Z,23.33
2023-04-11T12:29:53.545Z,23.36
2023-04-11T12:31:55.202Z,23.38
2023-04-11T12:33:57.252Z,23.38
2023-04-11T12:35:59.105Z,23.35
2023-04-11T12:38:00.665Z,23.30
2023-04-11T12:40:07.060Z,23.26
2023-04-11T12:42:16.742Z,23.21
2023-04-11T12:44:20.569Z,23.20
2023-04-11T12:46:25.012Z,23.21
2023-04-11T12:48:26.820Z,23.21
2023-04-11T12:50:28.411Z,23.23
2023-04-11T12:52:30.548Z,23.27
2023-04-11T12:54:32.283Z,23.28
2023-04-11T12:56:34.082Z,23.31
2023-04-11T12:58:35.776Z,23.44
2023-04-11T13:00:37.199Z,23.45
2023-04-11T13:02:43.793Z,23.47
2023-04-11T13:04:48.490Z,23.49
2023-04-11T13:06:52.359Z,23.48
2023-04-11T13:08:54.042Z,23.69
2023-04-11T13:10:56.058Z,23.63
2023-04-11T13:13:00.570Z,23.67
2023-04-11T13:15:04.969Z,23.66
2023-04-11T13:17:06.595Z,23.61
2023-04-11T13:19:08.117Z,23.55
2023-04-11T13:21:09.659Z,23.49
2023-04-11T13:23:11.527Z,23.42
2023-04-11T13:25:13.363Z,23.38
2023-04-11T13:27:14.994Z,23.28
2023-04-11T13:29:16.480Z,23.18
2023-04-11T13:31:19.429Z,23.09
2023-04-11T13:33:21.149Z,22.99
2023-04-11T13:35:23.881Z,22.87
2023-04-11T13:37:26.632Z,22.93
2023-04-11T13:39:28.182Z,22.76
2023-04-11T13:41:29.814Z,22.60
2023-04-11T13:43:31.437Z,22.44
2023-04-11T13:45:35.502Z,22.30
2023-04-11T13:47:38.782Z,22.21
2023-04-11T13:49:40.888Z,22.13
2023-04-11T13:51:42.460Z,22.10
2023-04-11T13:53:48.911Z,22.09
2023-04-11T13:55:51.266Z,22.09
2023-04-11T13:57:54.049Z,22.10
2023-04-11T13:59:55.940Z,22.12
2023-04-11T14:01:57.559Z,22.14
2023-04-11T14:03:59.394Z,22.18
2023-04-11T14:06:04.517Z,22.21
2023-04-11T14:08:08.321Z,22.25
2023-04-11T14:10:13.078Z,22.30
2023-04-11T14:12:14.531Z,22.34
2023-04-11T14:14:16.050Z,22.40
2023-04-11T14:16:17.807Z,22.45
2023-04-11T14:18:21.201Z,22.50
2023-04-11T14:20:24.074Z,22.52
2023-04-11T14:22:26.497Z,22.53
2023-04-11T14:24:31.234Z,22.56
2023-04-11T14:26:33.032Z,22.53
2023-04-11T14:28:34.877Z,22.51
2023-04-11T14:30:36.828Z,22.48
2023-04-11T14:32:41.820Z,22.47
2023-04-11T14:34:43.422Z,22.42
2023-04-11T14:36:45.050Z,22.38
2023-04-11T14:38:46.629Z,22.33
2023-04-11T14:40:50.852Z,22.29
2023-04-11T14:42:52.341Z,22.24
2023-04-11T14:44:54.542Z,22.17
2023-04-11T14:46:56.770Z,22.11
2023-04-11T14:48:58.262Z,22.07
2023-04-11T14:51:03.089Z,22.01
2023-04-11T14:53:04.650Z,21.94
2023-04-11T14:55:06.987Z,21.90
2023-04-11T14:57:09.843Z,21.86
2023-04-11T14:59:14.348Z,21.84
2023-04-11T15:01:20.115Z,21.80
2023-04-11T15:03:21.726Z,21.76
2023-04-11T15:05:26.548Z,21.73
2023-04-11T15:07:28.148Z,21.65
2023-04-11T15:09:29.591Z,21.55
2023-04-11T15:11:31.528Z,21.47
2023-04-11T15:13:36.031Z,21.41
2023-04-11T15:15:39.618Z,21.32
2023-04-11T15:17:50.124Z,21.23
2023-04-11T15:19:53.948Z,21.15
2023-04-11T15:22:04.966Z,21.10
2023-04-11T15:24:16.175Z,21.09
2023-04-11T15:26:17.771Z,21.07
2023-04-11T15:28:19.630Z,21.05
2023-04-11T15:30:21.086Z,21.01
2023-04-11T15:32:24.684Z,20.97
2023-04-11T15:34:26.672Z,20.91
2023-04-11T15:36:30.906Z,20.84
2023-04-11T15:38:32.538Z,20.77
2023-04-11T15:40:34.378Z,20.72
2023-04-11T15:42:37.702Z,20.66
2023-04-11T15:44:41.304Z,20.60
2023-04-11T15:46:43.008Z,20.54
2023-04-11T15:48:48.030Z,20.45
2023-04-11T15:50:50.794Z,20.39
2023-04-11T15:52:57.874Z,20.30
2023-04-11T15:55:00.243Z,20.21
2023-04-11T15:57:02.417Z,20.15
2023-04-11T15:59:04.281Z,20.09
2023-04-11T16:01:06.824Z,20.03
2023-04-11T16:03:10.745Z,20.02
2023-04-11T16:05:14.115Z,20.00
2023-04-11T16:07:21.971Z,19.98
2023-04-11T16:09:23.781Z,19.97
2023-04-11T16:11:25.331Z,19.94
2023-04-11T16:13:26.815Z,19.91
2023-04-11T16:15:28.477Z,19.88
2023-04-11T16:17:29.958Z,19.84
2023-04-11T16:19:31.435Z,19.83
2023-04-11T16:21:35.772Z,19.79
2023-04-11T16:23:37.382Z,19.79
2023-04-11T16:25:40.054Z,19.78
2023-04-11T16:27:41.807Z,19.77
2023-04-11T16:29:43.294Z,19.77
2023-04-11T16:31:44.970Z,19.75
2023-04-11T16:33:46.592Z,19.73
2023-04-11T16:35:48.197Z,19.72
2023-04-11T16:37:49.714Z,19.72
2023-04-11T16:39:51.742Z,19.72
2023-04-11T16:41:57.293Z,19.70
2023-04-11T16:43:59.068Z,19.70
2023-04-11T16:46:00.736Z,19.70
2023-04-11T16:48:02.491Z,19.67
2023-04-11T16:50:05.679Z,19.63
2023-04-11T16:52:07.210Z,19.56
2023-04-11T16:54:13.394Z,19.50
2023-04-11T16:56:14.884Z,19.42
2023-04-11T16:58:19.676Z,19.36
2023-04-11T17:00:25.375Z,19.29
2023-04-11T17:02:28.817Z,19.20
2023-04-11T17:04:30.468Z,19.12
2023-04-11T17:06:32.593Z,19.05
2023-04-11T17:08:34.311Z,18.97
2023-04-11T17:10:40.307Z,18.87
2023-04-11T17:12:43.573Z,18.80
2023-04-11T17:14:45.690Z,18.73
2023-04-11T17:16:47.688Z,18.65
2023-04-11T17:18:49.236Z,18.56
2023-04-11T17:20:52.713Z,18.51
2023-04-11T17:22:54.280Z,18.43
2023-04-11T17:24:55.730Z,18.35
2023-04-11T17:27:00.947Z,18.28
2023-04-11T17:29:05.600Z,18.22
2023-04-11T17:31:26.151Z,18.12
2023-04-11T17:33:27.789Z,18.04
2023-04-11T17:35:33.885Z,17.96
2023-04-11T17:37:37.055Z,17.93
2023-04-11T17:39:42.179Z,17.85
2023-04-11T17:41:45.352Z,17.79
2023-04-11T17:43:46.949Z,17.74
2023-04-11T17:45:55.649Z,17.67
2023-04-11T17:47:58.030Z,17.63
2023-04-11T17:50:09.680Z,17.59
2023-04-11T17:52:11.177Z,17.55
2023-04-11T17:54:17.219Z,17.50
2023-04-11T17:56:21.696Z,17.45
2023-04-11T17:58:23.265Z,17.40
2023-04-11T18:00:26.323Z,17.37
2023-04-11T18:02:29.303Z,17.34
2023-04-11T18:04:32.972Z,17.28
2023-04-11T18:06:35.435Z,17.25
2023-04-11T18:08:50.477Z,17.23
2023-04-11T18:10:52.877Z,17.19
2023-04-11T18:12:56.834Z,17.15
2023-04-11T18:14:58.300Z,17.11
2023-04-11T18:17:00.316Z,17.06
2023-04-11T18:19:01.774Z,17.01
2023-04-11T18:21:07.892Z,16.95
2023-04-11T18:23:09.628Z,16.90
2023-04-11T18:25:11.711Z,16.86
2023-04-11T18:27:13.137Z,16.81
2023-04-11T18:29:14.726Z,16.77
2023-04-11T18:31:16.880Z,16.80
2023-04-11T18:33:19.617Z,16.73
2023-04-11T18:35:23.798Z,16.68
2023-04-11T18:37:28.401Z,16.63
2023-04-11T18:39:30.144Z,16.61
2023-04-11T18:41:31.684Z,16.57
2023-04-11T18:43:33.673Z,16.54
2023-04-11T18:45:35.597Z,16.50
2023-04-11T18:47:38.155Z,16.47
2023-04-11T18:49:41.209Z,16.43
2023-04-11T18:51:42.755Z,16.37
2023-04-11T18:53:45.008Z,16.33
2023-04-11T18:55:47.114Z,16.29
2023-04-11T18:57:53.567Z,16.24
2023-04-11T19:00:01.060Z,16.20
2023-04-11T19:02:04.870Z,16.16
2023-04-11T19:04:07.615Z,16.09
2023-04-11T19:06:14.483Z,16.03
2023-04-11T19:08:16.107Z,15.99
2023-04-11T19:10:22.533Z,15.94
2023-04-11T19:12:23.999Z,15.88
2023-04-11T19:14:25.732Z,15.82
2023-04-11T19:16:27.347Z,15.75
2023-04-11T19:18:28.847Z,15.69
2023-04-11T19:20:30.445Z,15.64
2023-04-11T19:22:32.560Z,15.60
2023-04-11T19:24:40.943Z,15.54
2023-04-11T19:26:44.855Z,15.49
2023-04-11T19:28:48.166Z,15.46
2023-04-11T19:30:49.697Z,15.41
2023-04-11T19:32:51.318Z,15.36
2023-04-11T19:34:52.833Z,15.31
2023-04-11T19:36:54.589Z,15.24
2023-04-11T19:38:56.504Z,15.21
2023-04-11T19:40:57.937Z,15.17
2023-04-11T19:43:02.558Z,15.13
2023-04-11T19:45:05.124Z,15.12
2023-04-11T19:47:09.200Z,15.06
2023-04-11T19:49:11.065Z,15.01
2023-04-11T19:51:13.788Z,14.96
2023-04-11T19:53:16.942Z,14.93
2023-04-11T19:55:18.584Z,14.88
2023-04-11T19:57:20.940Z,14.84
2023-04-11T19:59:25.423Z,14.79
2023-04-11T20:01:28.473Z,14.76
2023-04-11T20:03:30.919Z,14.72
2023-04-11T20:05:32.996Z,14.68
2023-04-11T20:07:34.685Z,14.66
2023-04-11T20:09:36.633Z,14.61
2023-04-11T20:11:41.464Z,14.56
2023-04-11T20:13:43.065Z,14.50
2023-04-11T20:15:44.869Z,14.46
2023-04-11T20:17:46.966Z,14.43
2023-04-11T20:19:52.395Z,14.38
2023-04-11T20:21:58.483Z,14.34
2023-04-11T20:24:00.239Z,14.30
2023-04-11T20:26:01.857Z,14.25
2023-04-11T20:28:03.329Z,14.23
2023-04-11T20:30:10.407Z,14.19
2023-04-11T20:32:12.076Z,14.15
2023-04-11T20:34:16.572Z,14.11
2023-04-11T20:36:18.046Z,14.06
2023-04-11T20:38:23.156Z,14.04
2023-04-11T20:40:24.720Z,13.99
2023-04-11T20:42:30.693Z,13.96
2023-04-11T20:44:34.748Z,13.92
2023-04-11T20:46:39.866Z,13.88
2023-04-11T20:48:42.584Z,13.82
2023-04-11T20:50:47.054Z,13.77
2023-04-11T20:52:53.329Z,13.72
2023-04-11T20:54:57.713Z,13.68
2023-04-11T20:56:59.260Z,13.62
2023-04-11T20:59:02.346Z,13.55
2023-04-11T21:01:03.951Z,13.53
2023-04-11T21:03:06.489Z,13.51
2023-04-11T21:05:09.342Z,13.48
2023-04-11T21:07:11.024Z,13.43
2023-04-11T21:09:12.907Z,13.40
2023-04-11T21:11:18.666Z,13.37
2023-04-11T21:13:20.145Z,13.32
2023-04-11T21:15:21.742Z,13.29
2023-04-11T21:17:23.329Z,13.21
2023-04-11T21:19:27.991Z,13.16
2023-04-11T21:21:29.487Z,13.10
2023-04-11T21:23:31.144Z,13.08
2023-04-11T21:25:32.594Z,13.08
2023-04-11T21:27:34.228Z,13.02
2023-04-11T21:29:35.849Z,12.98
2023-04-11T21:31:37.628Z,12.93
2023-04-11T21:33:39.176Z,12.89
2023-04-11T21:35:40.674Z,12.84
2023-04-11T21:37:42.284Z,12.80
2023-04-11T21:39:44.259Z,12.74
2023-04-11T21:41:45.768Z,12.66
2023-04-11T21:43:47.977Z,12.59
2023-04-11T21:45:49.440Z,12.56
2023-04-11T21:47:51.606Z,12.54
2023-04-11T21:49:53.157Z,12.49
2023-04-11T21:51:54.772Z,12.45
2023-04-11T21:53:59.315Z,12.40
2023-04-11T21:56:02.960Z,12.38
2023-04-11T21:58:04.514Z,12.34
2023-04-11T22:00:08.378Z,12.34
2023-04-11T22:02:19.031Z,12.27
2023-04-11T22:04:20.872Z,12.23
2023-04-11T22:06:24.255Z,12.17
2023-04-11T22:08:29.219Z,12.14
2023-04-11T22:10:41.224Z,12.09
2023-04-11T22:12:48.893Z,12.06
2023-04-11T22:14:52.741Z,12.04
2023-04-11T22:16:58.170Z,12.01
2023-04-11T22:19:00.607Z,11.97
2023-04-11T22:21:03.199Z,11.95
2023-04-11T22:23:06.194Z,11.90
2023-04-11T22:25:09.007Z,11.87
2023-04-11T22:27:10.503Z,11.84
2023-04-11T22:29:13.955Z,11.82
2023-04-11T22:31:15.600Z,11.79
2023-04-11T22:33:17.175Z,11.74
2023-04-11T22:35:18.768Z,11.72
2023-04-11T22:37:20.355Z,11.70
2023-04-11T22:39:25.559Z,11.67
2023-04-11T22:41:27.067Z,11.65
2023-04-11T22:43:28.590Z,11.64
2023-04-11T22:45:32.551Z,11.60
2023-04-11T22:47:34.527Z,11.58
2023-04-11T22:49:40.687Z,11.56
2023-04-11T22:51:43.326Z,11.54
2023-04-11T22:53:50.328Z,11.52
2023-04-11T22:55:51.855Z,11.51
2023-04-11T22:57:53.635Z,11.50
2023-04-11T22:59:58.558Z,11.50
2023-04-11T23:02:00.180Z,11.50
2023-04-11T23:04:01.941Z,11.48
2023-04-11T23:06:03.949Z,11.48
2023-04-11T23:08:09.807Z,11.47
2023-04-11T23:10:15.371Z,11.47
2023-04-11T23:12:17.034Z,11.45
2023-04-11T23:14:20.899Z,11.44
2023-04-11T23:16:25.317Z,11.42
2023-04-11T23:18:27.271Z,11.42
2023-04-11T23:20:28.750Z,11.41
2023-04-11T23:22:32.675Z,11.39
2023-04-11T23:24:34.455Z,11.37
2023-04-11T23:26:36.188Z,11.36
2023-04-11T23:28:38.720Z,11.36
2023-04-11T23:30:40.468Z,11.35
2023-04-11T23:32:42.904Z,11.33
2023-04-11T23:34:47.009Z,11.32
2023-04-11T23:36:50.054Z,11.31
2023-04-11T23:38:51.878Z,11.31
2023-04-11T23:40:56.872Z,11.31
2023-04-11T23:43:01.217Z,11.29
2023-04-11T23:45:03.007Z,11.27
2023-04-11T23:47:04.589Z,11.28
2023-04-11T23:49:08.013Z,11.26
2023-04-11T23:51:09.475Z,11.25
2023-04-11T23:53:11.458Z,11.24
2023-04-11T23:55:13.408Z,11.23
2023-04-11T23:57:14.897Z,11.21
2023-04-11T23:59:16.663Z,11.22
